sensor_id;sensor_type;location;lat;lon;timestamp;P1;durP1;ratioP1;P2;durP2;ratioP2
19969;SDS011;10146;47.754;9.566;2022-07-22T00:02:17;10.23;;;9.23;;
19969;SDS011;10146;47.754;9.566;2022-07-22T00:04:43;9.05;;;8.35;;
19969;SDS011;10146;47.754;9.566;2022-07-22T00:07:08;13.20;;;9.90;;
19969;SDS011;10146;47.754;9.566;2022-07-22T00:09:34;9.60;;;8.65;;
19969;SDS011;10146;47.754;9.566;2022-07-22T00:12:00;10.30;;;9.32;;
19969;SDS011;10146;47.754;9.566;2022-07-22T00:14:25;9.43;;;8.57;;
19969;SDS011;10146;47.754;9.566;2022-07-22T00:16:51;9.35;;;8.65;;
19969;SDS011;10146;47.754;9.566;2022-07-22T00:19:17;10.30;;;9.40;;
19969;SDS011;10146;47.754;9.566;2022-07-22T00:21:42;10.32;;;9.43;;
19969;SDS011;10146;47.754;9.566;2022-07-22T00:24:08;9.40;;;8.65;;
19969;SDS011;10146;47.754;9.566;2022-07-22T00:26:34;9.75;;;8.85;;
19969;SDS011;10146;47.754;9.566;2022-07-22T00:29:00;9.40;;;8.60;;
19969;SDS011;10146;47.754;9.566;2022-07-22T00:31:25;9.43;;;8.60;;
19969;SDS011;10146;47.754;9.566;2022-07-22T00:33:51;9.07;;;8.27;;
19969;SDS011;10146;47.754;9.566;2022-07-22T00:36:17;9.88;;;8.90;;
19969;SDS011;10146;47.754;9.566;2022-07-22T00:38:43;9.57;;;8.63;;
19969;SDS011;10146;47.754;9.566;2022-07-22T00:41:09;9.80;;;8.82;;
19969;SDS011;10146;47.754;9.566;2022-07-22T00:46:24;9.77;;;8.88;;
19969;SDS011;10146;47.754;9.566;2022-07-22T00:48:50;9.23;;;8.32;;
19969;SDS011;10146;47.754;9.566;2022-07-22T00:51:16;10.15;;;9.15;;
19969;SDS011;10146;47.754;9.566;2022-07-22T00:53:43;9.38;;;8.45;;
19969;SDS011;10146;47.754;9.566;2022-07-22T00:56:09;9.80;;;8.80;;
19969;SDS011;10146;47.754;9.566;2022-07-22T00:58:35;9.85;;;8.93;;
19969;SDS011;10146;47.754;9.566;2022-07-22T01:01:01;10.98;;;8.98;;
19969;SDS011;10146;47.754;9.566;2022-07-22T01:03:27;9.30;;;8.50;;
19969;SDS011;10146;47.754;9.566;2022-07-22T01:05:52;10.07;;;8.65;;
19969;SDS011;10146;47.754;9.566;2022-07-22T01:08:18;9.80;;;8.77;;
19969;SDS011;10146;47.754;9.566;2022-07-22T01:10:44;9.45;;;8.65;;
19969;SDS011;10146;47.754;9.566;2022-07-22T01:13:09;8.93;;;8.10;;
19969;SDS011;10146;47.754;9.566;2022-07-22T01:15:35;9.48;;;8.63;;
19969;SDS011;10146;47.754;9.566;2022-07-22T01:18:00;9.00;;;8.20;;
19969;SDS011;10146;47.754;9.566;2022-07-22T01:20:26;8.95;;;8.18;;
19969;SDS011;10146;47.754;9.566;2022-07-22T01:22:52;9.88;;;8.88;;
19969;SDS011;10146;47.754;9.566;2022-07-22T01:25:18;9.73;;;8.73;;
19969;SDS011;10146;47.754;9.566;2022-07-22T01:27:43;9.20;;;8.43;;
19969;SDS011;10146;47.754;9.566;2022-07-22T01:30:09;9.70;;;8.80;;
19969;SDS011;10146;47.754;9.566;2022-07-22T01:32:35;9.90;;;8.95;;
19969;SDS011;10146;47.754;9.566;2022-07-22T01:35:00;10.20;;;9.18;;
19969;SDS011;10146;47.754;9.566;2022-07-22T01:37:26;9.63;;;8.82;;
19969;SDS011;10146;47.754;9.566;2022-07-22T01:39:52;9.60;;;8.70;;
19969;SDS011;10146;47.754;9.566;2022-07-22T01:42:18;10.23;;;9.25;;
19969;SDS011;10146;47.754;9.566;2022-07-22T01:44:43;10.05;;;8.88;;
19969;SDS011;10146;47.754;9.566;2022-07-22T01:47:09;10.35;;;9.43;;
19969;SDS011;10146;47.754;9.566;2022-07-22T01:49:35;9.77;;;8.90;;
19969;SDS011;10146;47.754;9.566;2022-07-22T01:52:02;10.30;;;9.50;;
19969;SDS011;10146;47.754;9.566;2022-07-22T01:54:29;10.73;;;9.05;;
19969;SDS011;10146;47.754;9.566;2022-07-22T01:56:55;10.32;;;9.43;;
19969;SDS011;10146;47.754;9.566;2022-07-22T01:59:20;9.38;;;8.40;;
19969;SDS011;10146;47.754;9.566;2022-07-22T02:01:46;8.85;;;8.05;;
19969;SDS011;10146;47.754;9.566;2022-07-22T02:04:12;10.05;;;9.15;;
19969;SDS011;10146;47.754;9.566;2022-07-22T02:06:37;10.38;;;9.32;;
19969;SDS011;10146;47.754;9.566;2022-07-22T02:09:03;10.88;;;9.00;;
19969;SDS011;10146;47.754;9.566;2022-07-22T02:11:29;10.02;;;9.13;;
19969;SDS011;10146;47.754;9.566;2022-07-22T02:13:55;10.13;;;9.23;;
19969;SDS011;10146;47.754;9.566;2022-07-22T02:16:21;10.02;;;9.13;;
19969;SDS011;10146;47.754;9.566;2022-07-22T02:18:46;9.85;;;8.85;;
19969;SDS011;10146;47.754;9.566;2022-07-22T02:21:12;10.40;;;9.40;;
19969;SDS011;10146;47.754;9.566;2022-07-22T02:23:38;10.35;;;9.38;;
19969;SDS011;10146;47.754;9.566;2022-07-22T02:26:03;10.50;;;9.60;;
19969;SDS011;10146;47.754;9.566;2022-07-22T02:28:29;10.73;;;9.63;;
19969;SDS011;10146;47.754;9.566;2022-07-22T02:30:55;10.73;;;9.70;;
19969;SDS011;10146;47.754;9.566;2022-07-22T02:33:21;10.00;;;9.10;;
19969;SDS011;10146;47.754;9.566;2022-07-22T02:35:46;13.00;;;9.25;;
19969;SDS011;10146;47.754;9.566;2022-07-22T02:38:12;11.02;;;9.80;;
19969;SDS011;10146;47.754;9.566;2022-07-22T02:40:38;10.25;;;9.27;;
19969;SDS011;10146;47.754;9.566;2022-07-22T02:43:03;10.40;;;9.50;;
19969;SDS011;10146;47.754;9.566;2022-07-22T02:45:31;10.73;;;9.75;;
19969;SDS011;10146;47.754;9.566;2022-07-22T02:47:57;9.73;;;8.93;;
19969;SDS011;10146;47.754;9.566;2022-07-22T02:50:23;11.32;;;10.20;;
19969;SDS011;10146;47.754;9.566;2022-07-22T02:52:49;9.80;;;9.00;;
19969;SDS011;10146;47.754;9.566;2022-07-22T02:55:15;10.73;;;9.82;;
19969;SDS011;10146;47.754;9.566;2022-07-22T02:57:41;9.98;;;9.18;;
19969;SDS011;10146;47.754;9.566;2022-07-22T03:00:07;10.73;;;9.80;;
19969;SDS011;10146;47.754;9.566;2022-07-22T03:02:35;9.93;;;8.95;;
19969;SDS011;10146;47.754;9.566;2022-07-22T03:05:01;10.38;;;9.45;;
19969;SDS011;10146;47.754;9.566;2022-07-22T03:07:27;10.45;;;9.50;;
19969;SDS011;10146;47.754;9.566;2022-07-22T03:09:53;10.95;;;10.05;;
19969;SDS011;10146;47.754;9.566;2022-07-22T03:12:19;10.18;;;9.27;;
19969;SDS011;10146;47.754;9.566;2022-07-22T03:14:44;10.25;;;9.35;;
19969;SDS011;10146;47.754;9.566;2022-07-22T03:17:10;9.98;;;9.10;;
19969;SDS011;10146;47.754;9.566;2022-07-22T03:19:35;9.98;;;9.07;;
19969;SDS011;10146;47.754;9.566;2022-07-22T03:22:01;10.35;;;9.45;;
19969;SDS011;10146;47.754;9.566;2022-07-22T03:24:27;10.15;;;9.15;;
19969;SDS011;10146;47.754;9.566;2022-07-22T03:26:52;10.50;;;9.60;;
19969;SDS011;10146;47.754;9.566;2022-07-22T03:29:18;10.27;;;9.27;;
19969;SDS011;10146;47.754;9.566;2022-07-22T03:31:43;10.15;;;9.18;;
19969;SDS011;10146;47.754;9.566;2022-07-22T03:34:09;10.18;;;8.93;;
19969;SDS011;10146;47.754;9.566;2022-07-22T03:36:35;10.63;;;9.52;;
19969;SDS011;10146;47.754;9.566;2022-07-22T03:39:00;11.05;;;9.98;;
19969;SDS011;10146;47.754;9.566;2022-07-22T03:41:26;10.80;;;9.88;;
19969;SDS011;10146;47.754;9.566;2022-07-22T03:43:52;10.98;;;10.07;;
19969;SDS011;10146;47.754;9.566;2022-07-22T03:46:17;10.70;;;9.80;;
19969;SDS011;10146;47.754;9.566;2022-07-22T03:48:43;11.32;;;10.32;;
19969;SDS011;10146;47.754;9.566;2022-07-22T03:51:09;11.15;;;10.07;;
19969;SDS011;10146;47.754;9.566;2022-07-22T03:53:34;10.68;;;9.68;;
19969;SDS011;10146;47.754;9.566;2022-07-22T03:56:00;10.30;;;9.43;;
19969;SDS011;10146;47.754;9.566;2022-07-22T03:58:26;11.35;;;10.32;;
19969;SDS011;10146;47.754;9.566;2022-07-22T04:00:53;10.65;;;9.75;;
19969;SDS011;10146;47.754;9.566;2022-07-22T04:03:19;11.00;;;9.98;;
19969;SDS011;10146;47.754;9.566;2022-07-22T04:05:44;11.27;;;10.18;;
19969;SDS011;10146;47.754;9.566;2022-07-22T04:08:10;10.63;;;9.68;;
19969;SDS011;10146;47.754;9.566;2022-07-22T04:10:36;10.98;;;9.88;;
19969;SDS011;10146;47.754;9.566;2022-07-22T04:13:03;10.13;;;9.30;;
19969;SDS011;10146;47.754;9.566;2022-07-22T04:15:28;11.10;;;9.93;;
19969;SDS011;10146;47.754;9.566;2022-07-22T04:17:54;10.68;;;9.57;;
19969;SDS011;10146;47.754;9.566;2022-07-22T04:20:20;11.23;;;10.10;;
19969;SDS011;10146;47.754;9.566;2022-07-22T04:22:45;11.82;;;10.68;;
19969;SDS011;10146;47.754;9.566;2022-07-22T04:25:11;11.00;;;10.00;;
19969;SDS011;10146;47.754;9.566;2022-07-22T04:27:36;11.77;;;10.57;;
19969;SDS011;10146;47.754;9.566;2022-07-22T04:30:02;12.35;;;11.05;;
19969;SDS011;10146;47.754;9.566;2022-07-22T04:32:28;11.13;;;9.73;;
19969;SDS011;10146;47.754;9.566;2022-07-22T04:34:54;11.25;;;9.95;;
19969;SDS011;10146;47.754;9.566;2022-07-22T04:37:20;9.95;;;8.93;;
19969;SDS011;10146;47.754;9.566;2022-07-22T04:39:45;12.23;;;11.00;;
19969;SDS011;10146;47.754;9.566;2022-07-22T04:42:11;13.00;;;9.93;;
19969;SDS011;10146;47.754;9.566;2022-07-22T04:44:36;10.70;;;9.70;;
19969;SDS011;10146;47.754;9.566;2022-07-22T04:47:02;9.80;;;9.00;;
19969;SDS011;10146;47.754;9.566;2022-07-22T04:49:28;10.43;;;9.38;;
19969;SDS011;10146;47.754;9.566;2022-07-22T04:51:54;10.80;;;9.70;;
19969;SDS011;10146;47.754;9.566;2022-07-22T04:54:19;10.32;;;9.43;;
19969;SDS011;10146;47.754;9.566;2022-07-22T04:56:45;10.77;;;9.68;;
19969;SDS011;10146;47.754;9.566;2022-07-22T04:59:11;11.18;;;10.07;;
19969;SDS011;10146;47.754;9.566;2022-07-22T05:01:36;13.60;;;10.18;;
19969;SDS011;10146;47.754;9.566;2022-07-22T05:04:02;10.82;;;9.82;;
19969;SDS011;10146;47.754;9.566;2022-07-22T05:06:28;12.23;;;11.13;;
19969;SDS011;10146;47.754;9.566;2022-07-22T05:08:54;10.32;;;9.35;;
19969;SDS011;10146;47.754;9.566;2022-07-22T05:11:19;10.60;;;9.70;;
19969;SDS011;10146;47.754;9.566;2022-07-22T05:13:45;10.45;;;9.45;;
19969;SDS011;10146;47.754;9.566;2022-07-22T05:16:11;11.85;;;10.75;;
19969;SDS011;10146;47.754;9.566;2022-07-22T05:18:36;13.02;;;10.98;;
19969;SDS011;10146;47.754;9.566;2022-07-22T05:21:03;11.40;;;10.20;;
19969;SDS011;10146;47.754;9.566;2022-07-22T05:23:29;11.25;;;10.25;;
19969;SDS011;10146;47.754;9.566;2022-07-22T05:25:55;11.85;;;10.77;;
19969;SDS011;10146;47.754;9.566;2022-07-22T05:28:21;11.85;;;10.65;;
19969;SDS011;10146;47.754;9.566;2022-07-22T05:30:47;11.60;;;10.60;;
19969;SDS011;10146;47.754;9.566;2022-07-22T05:33:12;12.15;;;10.90;;
19969;SDS011;10146;47.754;9.566;2022-07-22T05:35:38;11.98;;;10.88;;
19969;SDS011;10146;47.754;9.566;2022-07-22T05:38:04;11.60;;;10.60;;
19969;SDS011;10146;47.754;9.566;2022-07-22T05:40:30;13.20;;;11.38;;
19969;SDS011;10146;47.754;9.566;2022-07-22T05:42:57;12.13;;;10.90;;
19969;SDS011;10146;47.754;9.566;2022-07-22T05:45:22;11.63;;;10.65;;
19969;SDS011;10146;47.754;9.566;2022-07-22T05:47:48;12.25;;;11.00;;
19969;SDS011;10146;47.754;9.566;2022-07-22T05:50:14;12.20;;;11.10;;
19969;SDS011;10146;47.754;9.566;2022-07-22T05:52:39;11.70;;;10.50;;
19969;SDS011;10146;47.754;9.566;2022-07-22T05:55:06;11.80;;;10.65;;
19969;SDS011;10146;47.754;9.566;2022-07-22T05:57:32;10.93;;;9.93;;
19969;SDS011;10146;47.754;9.566;2022-07-22T05:59:58;11.82;;;10.68;;
19969;SDS011;10146;47.754;9.566;2022-07-22T06:02:23;12.07;;;10.70;;
19969;SDS011;10146;47.754;9.566;2022-07-22T06:04:49;12.63;;;11.23;;
19969;SDS011;10146;47.754;9.566;2022-07-22T06:07:15;12.10;;;10.85;;
19969;SDS011;10146;47.754;9.566;2022-07-22T06:09:40;11.07;;;9.98;;
19969;SDS011;10146;47.754;9.566;2022-07-22T06:12:06;10.90;;;9.77;;
19969;SDS011;10146;47.754;9.566;2022-07-22T06:14:32;11.00;;;9.95;;
19969;SDS011;10146;47.754;9.566;2022-07-22T06:16:58;11.93;;;10.10;;
19969;SDS011;10146;47.754;9.566;2022-07-22T06:19:24;10.40;;;9.48;;
19969;SDS011;10146;47.754;9.566;2022-07-22T06:21:50;11.80;;;9.82;;
19969;SDS011;10146;47.754;9.566;2022-07-22T06:24:16;11.00;;;9.48;;
19969;SDS011;10146;47.754;9.566;2022-07-22T06:26:41;11.05;;;9.98;;
19969;SDS011;10146;47.754;9.566;2022-07-22T06:29:07;10.38;;;9.38;;
19969;SDS011;10146;47.754;9.566;2022-07-22T06:31:33;10.02;;;9.00;;
19969;SDS011;10146;47.754;9.566;2022-07-22T06:33:58;10.00;;;9.00;;
19969;SDS011;10146;47.754;9.566;2022-07-22T06:36:24;9.45;;;8.40;;
19969;SDS011;10146;47.754;9.566;2022-07-22T06:38:50;10.63;;;8.80;;
19969;SDS011;10146;47.754;9.566;2022-07-22T06:41:15;9.88;;;8.95;;
19969;SDS011;10146;47.754;9.566;2022-07-22T06:43:44;10.43;;;8.98;;
19969;SDS011;10146;47.754;9.566;2022-07-22T06:46:10;9.80;;;8.95;;
19969;SDS011;10146;47.754;9.566;2022-07-22T06:48:35;9.93;;;8.93;;
19969;SDS011;10146;47.754;9.566;2022-07-22T06:51:01;9.35;;;8.32;;
19969;SDS011;10146;47.754;9.566;2022-07-22T06:53:27;9.50;;;8.63;;
19969;SDS011;10146;47.754;9.566;2022-07-22T06:55:52;11.95;;;9.35;;
19969;SDS011;10146;47.754;9.566;2022-07-22T06:58:18;9.60;;;8.68;;
19969;SDS011;10146;47.754;9.566;2022-07-22T07:00:44;10.18;;;9.02;;
19969;SDS011;10146;47.754;9.566;2022-07-22T07:03:09;10.30;;;9.38;;
19969;SDS011;10146;47.754;9.566;2022-07-22T07:05:35;9.32;;;8.43;;
19969;SDS011;10146;47.754;9.566;2022-07-22T07:08:01;10.70;;;9.60;;
19969;SDS011;10146;47.754;9.566;2022-07-22T07:10:27;12.15;;;9.50;;
19969;SDS011;10146;47.754;9.566;2022-07-22T07:12:56;9.77;;;8.90;;
19969;SDS011;10146;47.754;9.566;2022-07-22T07:15:22;9.45;;;8.45;;
19969;SDS011;10146;47.754;9.566;2022-07-22T07:17:48;9.23;;;8.52;;
19969;SDS011;10146;47.754;9.566;2022-07-22T07:20:14;9.77;;;8.88;;
19969;SDS011;10146;47.754;9.566;2022-07-22T07:22:40;9.45;;;8.55;;
19969;SDS011;10146;47.754;9.566;2022-07-22T07:25:06;9.10;;;8.40;;
19969;SDS011;10146;47.754;9.566;2022-07-22T07:27:34;9.73;;;8.77;;
19969;SDS011;10146;47.754;9.566;2022-07-22T07:29:59;9.75;;;8.80;;
19969;SDS011;10146;47.754;9.566;2022-07-22T07:32:26;9.35;;;8.55;;
19969;SDS011;10146;47.754;9.566;2022-07-22T07:34:51;11.27;;;9.85;;
19969;SDS011;10146;47.754;9.566;2022-07-22T07:37:17;10.77;;;8.65;;
19969;SDS011;10146;47.754;9.566;2022-07-22T07:39:43;10.05;;;9.00;;
19969;SDS011;10146;47.754;9.566;2022-07-22T07:42:08;10.07;;;8.27;;
19969;SDS011;10146;47.754;9.566;2022-07-22T07:44:34;9.88;;;8.85;;
19969;SDS011;10146;47.754;9.566;2022-07-22T07:47:00;12.10;;;8.90;;
19969;SDS011;10146;47.754;9.566;2022-07-22T07:49:26;10.60;;;9.43;;
19969;SDS011;10146;47.754;9.566;2022-07-22T07:51:53;10.20;;;9.20;;
19969;SDS011;10146;47.754;9.566;2022-07-22T07:54:19;9.70;;;8.90;;
19969;SDS011;10146;47.754;9.566;2022-07-22T07:56:45;9.48;;;8.43;;
19969;SDS011;10146;47.754;9.566;2022-07-22T07:59:11;9.38;;;8.10;;
19969;SDS011;10146;47.754;9.566;2022-07-22T08:01:37;9.57;;;8.70;;
19969;SDS011;10146;47.754;9.566;2022-07-22T08:04:02;10.15;;;8.30;;
19969;SDS011;10146;47.754;9.566;2022-07-22T08:06:28;10.15;;;9.15;;
19969;SDS011;10146;47.754;9.566;2022-07-22T08:08:54;10.25;;;8.70;;
19969;SDS011;10146;47.754;9.566;2022-07-22T08:11:19;9.75;;;8.48;;
19969;SDS011;10146;47.754;9.566;2022-07-22T08:13:45;9.00;;;8.20;;
19969;SDS011;10146;47.754;9.566;2022-07-22T08:16:11;9.13;;;8.35;;
19969;SDS011;10146;47.754;9.566;2022-07-22T08:18:36;9.13;;;8.30;;
19969;SDS011;10146;47.754;9.566;2022-07-22T08:21:02;8.88;;;8.07;;
19969;SDS011;10146;47.754;9.566;2022-07-22T08:23:28;8.68;;;7.93;;
19969;SDS011;10146;47.754;9.566;2022-07-22T08:25:53;9.20;;;8.27;;
19969;SDS011;10146;47.754;9.566;2022-07-22T08:28:19;9.90;;;9.10;;
19969;SDS011;10146;47.754;9.566;2022-07-22T08:30:45;9.65;;;8.40;;
19969;SDS011;10146;47.754;9.566;2022-07-22T08:33:10;8.80;;;8.00;;
19969;SDS011;10146;47.754;9.566;2022-07-22T08:35:36;8.32;;;7.60;;
19969;SDS011;10146;47.754;9.566;2022-07-22T08:38:02;9.07;;;7.80;;
19969;SDS011;10146;47.754;9.566;2022-07-22T08:40:28;12.02;;;8.05;;
19969;SDS011;10146;47.754;9.566;2022-07-22T08:42:53;8.68;;;7.85;;
19969;SDS011;10146;47.754;9.566;2022-07-22T08:45:19;8.35;;;7.65;;
19969;SDS011;10146;47.754;9.566;2022-07-22T08:47:49;8.38;;;7.65;;
19969;SDS011;10146;47.754;9.566;2022-07-22T08:50:15;7.32;;;6.65;;
19969;SDS011;10146;47.754;9.566;2022-07-22T08:52:41;8.55;;;7.70;;
19969;SDS011;10146;47.754;9.566;2022-07-22T08:55:08;9.35;;;8.40;;
19969;SDS011;10146;47.754;9.566;2022-07-22T08:57:34;8.43;;;7.63;;
19969;SDS011;10146;47.754;9.566;2022-07-22T09:00:02;8.07;;;7.47;;
19969;SDS011;10146;47.754;9.566;2022-07-22T09:02:36;7.63;;;6.95;;
19969;SDS011;10146;47.754;9.566;2022-07-22T09:05:04;8.00;;;7.30;;
19969;SDS011;10146;47.754;9.566;2022-07-22T09:07:35;7.07;;;6.47;;
19969;SDS011;10146;47.754;9.566;2022-07-22T09:10:03;8.38;;;7.57;;
19969;SDS011;10146;47.754;9.566;2022-07-22T09:12:34;7.68;;;6.97;;
19969;SDS011;10146;47.754;9.566;2022-07-22T09:15:00;7.43;;;6.68;;
19969;SDS011;10146;47.754;9.566;2022-07-22T09:17:32;7.88;;;7.07;;
19969;SDS011;10146;47.754;9.566;2022-07-22T09:20:04;7.68;;;6.97;;
19969;SDS011;10146;47.754;9.566;2022-07-22T09:22:42;8.05;;;7.30;;
19969;SDS011;10146;47.754;9.566;2022-07-22T09:27:48;9.43;;;7.40;;
19969;SDS011;10146;47.754;9.566;2022-07-22T09:30:17;6.80;;;6.20;;
19969;SDS011;10146;47.754;9.566;2022-07-22T09:32:44;7.47;;;6.85;;
19969;SDS011;10146;47.754;9.566;2022-07-22T09:35:11;7.20;;;6.55;;
19969;SDS011;10146;47.754;9.566;2022-07-22T09:37:38;7.00;;;6.35;;
19969;SDS011;10146;47.754;9.566;2022-07-22T09:40:13;8.45;;;6.30;;
19969;SDS011;10146;47.754;9.566;2022-07-22T09:42:52;7.30;;;6.57;;
19969;SDS011;10146;47.754;9.566;2022-07-22T09:45:21;6.85;;;6.25;;
19969;SDS011;10146;47.754;9.566;2022-07-22T09:47:48;6.43;;;5.82;;
19969;SDS011;10146;47.754;9.566;2022-07-22T09:52:51;6.75;;;5.97;;
19969;SDS011;10146;47.754;9.566;2022-07-22T09:55:19;6.70;;;6.10;;
19969;SDS011;10146;47.754;9.566;2022-07-22T09:57:46;7.38;;;6.18;;
19969;SDS011;10146;47.754;9.566;2022-07-22T10:00:13;6.40;;;5.88;;
19969;SDS011;10146;47.754;9.566;2022-07-22T10:02:43;6.43;;;5.82;;
19969;SDS011;10146;47.754;9.566;2022-07-22T10:05:15;17.75;;;8.00;;
19969;SDS011;10146;47.754;9.566;2022-07-22T10:07:43;9.02;;;6.47;;
19969;SDS011;10146;47.754;9.566;2022-07-22T10:10:13;8.55;;;6.45;;
19969;SDS011;10146;47.754;9.566;2022-07-22T10:12:41;7.13;;;6.45;;
19969;SDS011;10146;47.754;9.566;2022-07-22T10:15:08;6.47;;;5.90;;
19969;SDS011;10146;47.754;9.566;2022-07-22T10:17:45;6.60;;;5.88;;
19969;SDS011;10146;47.754;9.566;2022-07-22T10:20:18;6.43;;;5.72;;
19969;SDS011;10146;47.754;9.566;2022-07-22T10:22:47;6.40;;;5.88;;
19969;SDS011;10146;47.754;9.566;2022-07-22T10:25:20;6.32;;;5.82;;
19969;SDS011;10146;47.754;9.566;2022-07-22T10:27:49;5.82;;;5.32;;
19969;SDS011;10146;47.754;9.566;2022-07-22T10:30:32;6.47;;;5.88;;
19969;SDS011;10146;47.754;9.566;2022-07-22T10:33:05;6.63;;;5.95;;
19969;SDS011;10146;47.754;9.566;2022-07-22T10:35:59;6.43;;;5.82;;
19969;SDS011;10146;47.754;9.566;2022-07-22T10:38:26;6.70;;;6.10;;
19969;SDS011;10146;47.754;9.566;2022-07-22T10:40:54;6.93;;;6.30;;
19969;SDS011;10146;47.754;9.566;2022-07-22T10:43:22;6.68;;;6.18;;
19969;SDS011;10146;47.754;9.566;2022-07-22T10:45:49;7.15;;;5.85;;
19969;SDS011;10146;47.754;9.566;2022-07-22T10:48:23;6.80;;;6.13;;
19969;SDS011;10146;47.754;9.566;2022-07-22T10:51:04;6.88;;;6.10;;
19969;SDS011;10146;47.754;9.566;2022-07-22T10:56:27;5.78;;;5.30;;
19969;SDS011;10146;47.754;9.566;2022-07-22T10:59:09;7.93;;;6.22;;
19969;SDS011;10146;47.754;9.566;2022-07-22T11:01:38;6.60;;;6.10;;
19969;SDS011;10146;47.754;9.566;2022-07-22T11:04:18;6.55;;;6.05;;
19969;SDS011;10146;47.754;9.566;2022-07-22T11:06:55;7.03;;;6.43;;
19969;SDS011;10146;47.754;9.566;2022-07-22T11:09:22;6.70;;;6.10;;
19969;SDS011;10146;47.754;9.566;2022-07-22T11:11:55;7.07;;;6.38;;
19969;SDS011;10146;47.754;9.566;2022-07-22T11:14:28;7.22;;;6.38;;
19969;SDS011;10146;47.754;9.566;2022-07-22T11:17:08;6.50;;;5.90;;
19969;SDS011;10146;47.754;9.566;2022-07-22T11:19:36;6.93;;;5.78;;
19969;SDS011;10146;47.754;9.566;2022-07-22T11:22:03;6.90;;;6.07;;
19969;SDS011;10146;47.754;9.566;2022-07-22T11:24:31;8.27;;;6.85;;
19969;SDS011;10146;47.754;9.566;2022-07-22T11:26:58;7.13;;;6.53;;
19969;SDS011;10146;47.754;9.566;2022-07-22T11:31:56;7.43;;;6.72;;
19969;SDS011;10146;47.754;9.566;2022-07-22T11:34:23;6.70;;;6.20;;
19969;SDS011;10146;47.754;9.566;2022-07-22T11:36:50;6.65;;;6.05;;
19969;SDS011;10146;47.754;9.566;2022-07-22T11:39:21;6.70;;;6.18;;
19969;SDS011;10146;47.754;9.566;2022-07-22T11:41:54;6.88;;;6.28;;
19969;SDS011;10146;47.754;9.566;2022-07-22T11:44:23;7.40;;;6.65;;
19969;SDS011;10146;47.754;9.566;2022-07-22T11:46:50;7.13;;;6.30;;
19969;SDS011;10146;47.754;9.566;2022-07-22T11:49:18;9.00;;;6.93;;
19969;SDS011;10146;47.754;9.566;2022-07-22T11:51:45;6.85;;;6.25;;
19969;SDS011;10146;47.754;9.566;2022-07-22T11:54:11;6.97;;;6.25;;
19969;SDS011;10146;47.754;9.566;2022-07-22T11:56:37;6.90;;;6.30;;
19969;SDS011;10146;47.754;9.566;2022-07-22T11:59:04;6.68;;;6.10;;
19969;SDS011;10146;47.754;9.566;2022-07-22T12:01:31;6.53;;;6.03;;
19969;SDS011;10146;47.754;9.566;2022-07-22T12:04:00;7.07;;;6.35;;
19969;SDS011;10146;47.754;9.566;2022-07-22T12:06:28;6.97;;;6.28;;
19969;SDS011;10146;47.754;9.566;2022-07-22T12:09:04;7.18;;;6.50;;
19969;SDS011;10146;47.754;9.566;2022-07-22T12:11:32;5.95;;;5.45;;
19969;SDS011;10146;47.754;9.566;2022-07-22T12:14:04;7.35;;;5.93;;
19969;SDS011;10146;47.754;9.566;2022-07-22T12:16:37;7.07;;;6.22;;
19969;SDS011;10146;47.754;9.566;2022-07-22T12:19:10;6.03;;;5.53;;
19969;SDS011;10146;47.754;9.566;2022-07-22T12:22:22;6.32;;;5.50;;
19969;SDS011;10146;47.754;9.566;2022-07-22T12:24:28;6.88;;;6.18;;
19969;SDS011;10146;47.754;9.566;2022-07-22T12:26:59;6.35;;;5.85;;
19969;SDS011;10146;47.754;9.566;2022-07-22T12:29:28;7.97;;;6.65;;
19969;SDS011;10146;47.754;9.566;2022-07-22T12:32:02;6.53;;;5.82;;
19969;SDS011;10146;47.754;9.566;2022-07-22T12:34:38;6.82;;;6.30;;
19969;SDS011;10146;47.754;9.566;2022-07-22T12:39:39;7.90;;;6.45;;
19969;SDS011;10146;47.754;9.566;2022-07-22T12:42:15;6.95;;;6.35;;
19969;SDS011;10146;47.754;9.566;2022-07-22T12:44:49;6.88;;;6.03;;
19969;SDS011;10146;47.754;9.566;2022-07-22T12:52:52;7.63;;;6.18;;
19969;SDS011;10146;47.754;9.566;2022-07-22T12:55:19;6.18;;;5.68;;
19969;SDS011;10146;47.754;9.566;2022-07-22T12:57:44;6.28;;;5.78;;
19969;SDS011;10146;47.754;9.566;2022-07-22T13:00:10;7.07;;;6.10;;
19969;SDS011;10146;47.754;9.566;2022-07-22T13:02:40;6.47;;;5.90;;
19969;SDS011;10146;47.754;9.566;2022-07-22T13:05:06;6.90;;;6.20;;
19969;SDS011;10146;47.754;9.566;2022-07-22T13:07:32;6.57;;;5.72;;
19969;SDS011;10146;47.754;9.566;2022-07-22T13:09:57;6.72;;;6.05;;
19969;SDS011;10146;47.754;9.566;2022-07-22T13:12:23;8.00;;;5.80;;
19969;SDS011;10146;47.754;9.566;2022-07-22T13:14:48;8.15;;;6.07;;
19969;SDS011;10146;47.754;9.566;2022-07-22T13:17:14;6.25;;;5.70;;
19969;SDS011;10146;47.754;9.566;2022-07-22T13:19:40;6.10;;;5.53;;
19969;SDS011;10146;47.754;9.566;2022-07-22T13:22:07;6.72;;;5.75;;
19969;SDS011;10146;47.754;9.566;2022-07-22T13:24:33;6.35;;;5.40;;
19969;SDS011;10146;47.754;9.566;2022-07-22T13:26:59;6.05;;;5.55;;
19969;SDS011;10146;47.754;9.566;2022-07-22T13:29:25;5.80;;;5.22;;
19969;SDS011;10146;47.754;9.566;2022-07-22T13:31:50;6.43;;;5.68;;
19969;SDS011;10146;47.754;9.566;2022-07-22T13:34:16;7.63;;;6.20;;
19969;SDS011;10146;47.754;9.566;2022-07-22T13:36:41;6.03;;;5.53;;
19969;SDS011;10146;47.754;9.566;2022-07-22T13:39:07;6.00;;;5.50;;
19969;SDS011;10146;47.754;9.566;2022-07-22T13:41:34;6.35;;;5.60;;
19969;SDS011;10146;47.754;9.566;2022-07-22T13:43:59;5.97;;;5.32;;
19969;SDS011;10146;47.754;9.566;2022-07-22T13:46:25;5.93;;;5.43;;
19969;SDS011;10146;47.754;9.566;2022-07-22T13:48:50;6.00;;;5.40;;
19969;SDS011;10146;47.754;9.566;2022-07-22T13:51:18;6.20;;;5.70;;
19969;SDS011;10146;47.754;9.566;2022-07-22T13:53:44;5.72;;;5.25;;
19969;SDS011;10146;47.754;9.566;2022-07-22T13:56:10;6.25;;;5.70;;
19969;SDS011;10146;47.754;9.566;2022-07-22T13:58:37;6.32;;;5.72;;
19969;SDS011;10146;47.754;9.566;2022-07-22T14:01:03;5.53;;;5.13;;
19969;SDS011;10146;47.754;9.566;2022-07-22T14:03:31;6.72;;;5.53;;
19969;SDS011;10146;47.754;9.566;2022-07-22T14:05:57;6.55;;;5.95;;
19969;SDS011;10146;47.754;9.566;2022-07-22T14:08:22;7.30;;;6.20;;
19969;SDS011;10146;47.754;9.566;2022-07-22T14:10:48;6.20;;;5.65;;
19969;SDS011;10146;47.754;9.566;2022-07-22T14:13:14;6.03;;;5.50;;
19969;SDS011;10146;47.754;9.566;2022-07-22T14:15:39;6.78;;;6.15;;
19969;SDS011;10146;47.754;9.566;2022-07-22T14:18:05;7.07;;;6.40;;
19969;SDS011;10146;47.754;9.566;2022-07-22T14:20:32;6.38;;;5.78;;
19969;SDS011;10146;47.754;9.566;2022-07-22T14:22:58;7.03;;;6.38;;
19969;SDS011;10146;47.754;9.566;2022-07-22T14:25:24;6.88;;;6.28;;
19969;SDS011;10146;47.754;9.566;2022-07-22T14:27:50;5.95;;;5.47;;
19969;SDS011;10146;47.754;9.566;2022-07-22T14:30:15;6.32;;;5.82;;
19969;SDS011;10146;47.754;9.566;2022-07-22T14:32:41;6.43;;;5.80;;
19969;SDS011;10146;47.754;9.566;2022-07-22T14:35:07;6.35;;;5.75;;
19969;SDS011;10146;47.754;9.566;2022-07-22T14:37:33;6.18;;;5.68;;
19969;SDS011;10146;47.754;9.566;2022-07-22T14:39:59;5.90;;;5.50;;
19969;SDS011;10146;47.754;9.566;2022-07-22T14:42:24;6.88;;;5.80;;
19969;SDS011;10146;47.754;9.566;2022-07-22T14:44:50;7.18;;;6.13;;
19969;SDS011;10146;47.754;9.566;2022-07-22T14:47:16;6.38;;;5.88;;
19969;SDS011;10146;47.754;9.566;2022-07-22T14:49:42;6.22;;;5.63;;
19969;SDS011;10146;47.754;9.566;2022-07-22T14:52:07;6.15;;;5.65;;
19969;SDS011;10146;47.754;9.566;2022-07-22T14:54:33;7.07;;;6.35;;
19969;SDS011;10146;47.754;9.566;2022-07-22T14:56:59;6.20;;;5.60;;
19969;SDS011;10146;47.754;9.566;2022-07-22T14:59:26;6.10;;;5.47;;
19969;SDS011;10146;47.754;9.566;2022-07-22T15:01:51;6.88;;;6.38;;